Maldives Meteorological Service

SYNOP

Station Code SYNOP
43555
AAXX 17004 43555 12475 52304 10283 20235 30121 40123 60002 82231 333 58000 70000 82818 83362=
43533
AAXX 17004 43533 12465 32304 10272 20243 30118 40120 60002 82202 333 58001 70000 82818=
43577
AAXX 17004 43577 12467 69902 10275 20242 30122 40124 60002 82232 333 59002 70000 82818 83363 86077=
43588
AAXX 17004 43588 12468 30000 10248 20242 30120 40121 60002 82201 333 59004 70000 82818=
43599
AAXX 17004 43599 12462 30000 10255 20245 30121 40123 60002 82201 333 59004 70000 82818 =
Last Updated : 2018-10-17 05:00:21